createdAt,value
2022-10-16T00:01:09.968Z,101510.84
2022-10-16T00:03:37.972Z,101504.91
2022-10-16T00:06:06.881Z,101512.81
2022-10-16T00:08:36.175Z,101506.94
2022-10-16T00:11:06.502Z,101520.91
2022-10-16T00:13:35.768Z,101520.25
2022-10-16T00:16:04.462Z,101525.56
2022-10-16T00:18:35.135Z,101524.91
2022-10-16T00:21:08.178Z,101532.88
2022-10-16T00:23:37.102Z,101535.97
2022-10-16T00:26:07.543Z,101536.03
2022-10-16T00:28:36.449Z,101544.16
2022-10-16T00:31:07.364Z,101539.16
2022-10-16T00:33:37.228Z,101541.66
2022-10-16T00:36:07.435Z,101541.66
2022-10-16T00:38:35.717Z,101537.53
2022-10-16T00:41:03.781Z,101538.97
2022-10-16T00:43:38.276Z,101544.09
2022-10-16T00:46:11.185Z,101540.38
2022-10-16T00:48:40.689Z,101550.09
2022-10-16T00:51:09.639Z,101542.16
2022-10-16T00:53:38.748Z,101536.28
2022-10-16T00:56:07.319Z,101543.19
2022-10-16T00:58:35.326Z,101542.91
2022-10-16T01:01:03.443Z,101553.16
2022-10-16T01:03:33.427Z,101544.59
2022-10-16T01:06:15.738Z,101539.50
2022-10-16T01:08:56.306Z,101533.66
2022-10-16T01:11:31.240Z,101544.53
2022-10-16T01:14:07.898Z,101541.19
2022-10-16T01:16:41.727Z,101550.50
2022-10-16T01:19:16.104Z,101551.47
2022-10-16T01:21:49.110Z,101547.72
2022-10-16T01:24:33.553Z,101534.94
2022-10-16T01:27:17.025Z,101542.50
2022-10-16T01:29:53.870Z,101546.34
2022-10-16T01:32:29.075Z,101538.66
2022-10-16T01:35:04.177Z,101544.19
2022-10-16T01:37:37.838Z,101546.53
2022-10-16T01:40:11.498Z,101544.94
2022-10-16T01:42:44.109Z,101547.69
2022-10-16T01:45:15.088Z,101551.94
2022-10-16T01:47:44.809Z,101555.09
2022-10-16T01:50:14.933Z,101559.81
2022-10-16T01:52:47.285Z,101558.91
2022-10-16T01:55:19.837Z,101553.13
2022-10-16T01:57:52.506Z,101547.72
2022-10-16T02:00:23.008Z,101558.56
2022-10-16T02:02:54.297Z,101558.47
2022-10-16T02:05:27.594Z,101550.84
2022-10-16T02:07:56.029Z,101559.28
2022-10-16T02:10:25.986Z,101569.47
2022-10-16T02:13:01.705Z,101571.38
2022-10-16T02:15:29.734Z,101569.09
2022-10-16T02:17:57.818Z,101569.03
2022-10-16T02:20:30.257Z,101577.56
2022-10-16T02:22:59.015Z,101575.97
2022-10-16T02:25:32.027Z,101570.03
2022-10-16T02:28:06.607Z,101582.28
2022-10-16T02:30:38.948Z,101581.69
2022-10-16T02:33:11.813Z,101594.72
2022-10-16T02:35:40.749Z,101591.81
2022-10-16T02:40:39.320Z,101595.19
2022-10-16T02:43:09.724Z,101594.25
2022-10-16T02:45:37.756Z,101596.75
2022-10-16T02:48:05.902Z,101598.53
2022-10-16T02:50:34.091Z,101597.69
2022-10-16T02:53:02.082Z,101598.84
2022-10-16T02:55:30.103Z,101598.41
2022-10-16T02:57:58.278Z,101600.22
2022-10-16T03:00:27.650Z,101601.47
2022-10-16T03:02:55.585Z,101608.34
2022-10-16T03:05:23.675Z,101603.69
2022-10-16T03:07:53.706Z,101589.75
2022-10-16T03:10:21.653Z,101611.72
2022-10-16T03:12:49.565Z,101606.47
2022-10-16T03:15:17.812Z,101611.66
2022-10-16T03:17:47.199Z,101617.25
2022-10-16T03:20:15.174Z,101619.25
2022-10-16T03:22:43.096Z,101619.47
2022-10-16T03:25:11.436Z,101620.28
2022-10-16T03:27:39.426Z,101622.19
2022-10-16T03:30:08.555Z,101623.03
2022-10-16T03:35:11.287Z,101622.06
2022-10-16T03:37:39.265Z,101622.94
2022-10-16T03:40:08.130Z,101624.97
2022-10-16T03:42:36.096Z,101630.16
2022-10-16T03:45:04.043Z,101623.56
2022-10-16T03:47:34.040Z,101628.78
2022-10-16T03:50:02.125Z,101633.47
2022-10-16T03:52:31.509Z,101626.09
2022-10-16T03:54:59.617Z,101621.50
2022-10-16T03:57:27.864Z,101618.91
2022-10-16T03:59:56.014Z,101617.22
2022-10-16T04:02:24.098Z,101619.16
2022-10-16T04:04:52.017Z,101621.06
2022-10-16T04:07:20.106Z,101619.28
2022-10-16T04:09:49.415Z,101617.25
2022-10-16T04:12:17.348Z,101626.44
2022-10-16T04:14:45.328Z,101631.38
2022-10-16T04:17:13.250Z,101631.56
2022-10-16T04:19:41.193Z,101614.44
2022-10-16T04:22:09.152Z,101636.41
2022-10-16T04:24:37.404Z,101627.84
2022-10-16T04:27:06.846Z,101618.66
2022-10-16T04:29:34.778Z,101626.63
2022-10-16T04:32:02.834Z,101630.94
2022-10-16T04:34:30.903Z,101634.78
2022-10-16T04:36:58.824Z,101640.69
2022-10-16T04:39:26.897Z,101634.53
2022-10-16T04:41:54.807Z,101626.16
2022-10-16T04:44:24.254Z,101643.97
2022-10-16T04:46:52.985Z,101649.31
2022-10-16T04:49:21.102Z,101653.59
2022-10-16T04:51:49.025Z,101662.22
2022-10-16T04:54:17.166Z,101665.63
2022-10-16T04:56:48.368Z,101670.84
2022-10-16T04:59:16.889Z,101666.47
2022-10-16T05:01:46.734Z,101680.22
2022-10-16T05:04:16.091Z,101678.47
2022-10-16T05:06:44.246Z,101684.44
2022-10-16T05:09:12.479Z,101680.25
2022-10-16T05:11:40.397Z,101681.94
2022-10-16T05:14:08.754Z,101682.72
2022-10-16T05:16:36.714Z,101692.25
2022-10-16T05:19:27.997Z,101692.06
2022-10-16T05:21:56.569Z,101701.34
2022-10-16T05:24:24.623Z,101707.97
2022-10-16T05:26:53.211Z,101708.56
2022-10-16T05:29:21.777Z,101717.72
2022-10-16T05:31:52.863Z,101712.38
2022-10-16T05:34:22.626Z,101732.59
2022-10-16T05:36:51.366Z,101730.63
2022-10-16T05:39:19.475Z,101738.94
2022-10-16T05:41:47.735Z,101742.75
2022-10-16T05:44:15.660Z,101743.16
2022-10-16T05:46:43.602Z,101740.16
2022-10-16T05:49:11.623Z,101744.84
2022-10-16T05:51:41.192Z,101747.91
2022-10-16T05:54:09.171Z,101751.84
2022-10-16T05:56:37.093Z,101748.81
2022-10-16T05:59:05.794Z,101747.38
2022-10-16T06:01:34.444Z,101750.25
2022-10-16T06:04:02.514Z,101755.66
2022-10-16T06:06:32.002Z,101758.44
2022-10-16T06:09:01.333Z,101762.16
2022-10-16T06:11:31.385Z,101754.91
2022-10-16T06:14:02.777Z,101760.50
2022-10-16T06:16:31.154Z,101769.03
2022-10-16T06:19:00.325Z,101768.28
2022-10-16T06:21:30.416Z,101776.56
2022-10-16T06:23:59.125Z,101778.50
2022-10-16T06:26:30.881Z,101780.72
2022-10-16T06:29:00.758Z,101791.94
2022-10-16T06:31:32.108Z,101787.16
2022-10-16T06:34:00.600Z,101780.75
2022-10-16T06:36:28.855Z,101793.72
2022-10-16T06:38:57.005Z,101792.25
2022-10-16T06:41:25.467Z,101791.16
2022-10-16T06:43:54.938Z,101788.78
2022-10-16T06:46:25.421Z,101789.88
2022-10-16T06:48:54.094Z,101774.16
2022-10-16T06:51:23.640Z,101794.69
2022-10-16T06:54:08.411Z,101795.06
2022-10-16T06:56:36.597Z,101793.22
2022-10-16T06:59:06.429Z,101797.72
2022-10-16T07:01:35.269Z,101800.91
2022-10-16T07:04:04.285Z,101795.09
2022-10-16T07:06:34.296Z,101802.97
2022-10-16T07:09:05.417Z,101803.19
2022-10-16T07:11:33.575Z,101803.41
2022-10-16T07:14:01.950Z,101805.78
2022-10-16T07:16:33.315Z,101811.06
2022-10-16T07:19:02.801Z,101814.97
2022-10-16T07:21:32.524Z,101802.31
2022-10-16T07:24:02.655Z,101804.06
2022-10-16T07:26:32.901Z,101808.19
2022-10-16T07:29:01.920Z,101807.06
2022-10-16T07:31:31.613Z,101807.09
2022-10-16T07:34:00.902Z,101813.59
2022-10-16T07:36:29.738Z,101810.72
2022-10-16T07:39:00.166Z,101806.72
2022-10-16T07:41:29.829Z,101821.44
2022-10-16T07:44:01.206Z,101803.13
2022-10-16T07:46:32.004Z,101809.72
2022-10-16T07:48:59.983Z,101809.50
2022-10-16T07:51:28.541Z,101813.38
2022-10-16T07:53:56.774Z,101814.41
2022-10-16T07:56:25.260Z,101806.47
2022-10-16T07:58:53.608Z,101816.44
2022-10-16T08:01:22.191Z,101816.81
2022-10-16T08:03:53.825Z,101818.69
2022-10-16T08:06:27.614Z,101823.44
2022-10-16T08:08:57.041Z,101818.63
2022-10-16T08:11:25.502Z,101824.00
2022-10-16T08:13:53.982Z,101823.91
2022-10-16T08:16:22.143Z,101821.31
2022-10-16T08:18:52.651Z,101819.75
2022-10-16T08:21:22.824Z,101824.56
2022-10-16T08:23:54.855Z,101834.19
2022-10-16T08:26:27.223Z,101821.06
2022-10-16T08:28:56.095Z,101826.66
2022-10-16T08:31:24.394Z,101830.16
2022-10-16T08:33:54.258Z,101829.91
2022-10-16T08:36:22.522Z,101828.47
2022-10-16T08:38:52.131Z,101827.06
2022-10-16T08:42:00.117Z,101820.81
2022-10-16T08:44:38.309Z,101836.91
2022-10-16T08:47:15.376Z,101823.97
2022-10-16T08:49:56.811Z,101824.53
2022-10-16T08:52:26.404Z,101835.03
2022-10-16T08:54:57.553Z,101833.72
2022-10-16T08:57:28.519Z,101832.13
2022-10-16T09:00:01.529Z,101835.16
2022-10-16T09:02:35.462Z,101832.66
2022-10-16T09:05:27.409Z,101832.53
2022-10-16T09:08:13.405Z,101831.56
2022-10-16T09:10:51.119Z,101835.03
2022-10-16T09:13:26.059Z,101829.03
2022-10-16T09:16:01.171Z,101833.03
2022-10-16T09:18:36.405Z,101839.59
2022-10-16T09:21:12.548Z,101837.63
2022-10-16T09:23:42.300Z,101830.72
2022-10-16T09:26:15.387Z,101824.72
2022-10-16T09:28:44.367Z,101836.13
2022-10-16T09:31:18.887Z,101830.88
2022-10-16T09:33:52.647Z,101836.72
2022-10-16T09:36:22.795Z,101831.31
2022-10-16T09:38:55.181Z,101829.88
2022-10-16T09:41:26.515Z,101829.69
2022-10-16T09:43:58.104Z,101812.19
2022-10-16T09:46:30.927Z,101822.38
2022-10-16T09:49:01.249Z,101814.03
2022-10-16T09:51:31.173Z,101811.41
2022-10-16T09:54:02.878Z,101803.72
2022-10-16T09:56:33.772Z,101803.41
2022-10-16T09:59:05.376Z,101800.19
2022-10-16T10:01:39.700Z,101796.13
2022-10-16T10:04:08.952Z,101785.44
2022-10-16T10:06:39.996Z,101788.84
2022-10-16T10:09:20.315Z,101787.63
2022-10-16T10:11:54.153Z,101792.16
2022-10-16T10:14:29.197Z,101782.25
2022-10-16T10:17:12.102Z,101785.78
2022-10-16T10:19:41.869Z,101782.22
2022-10-16T10:22:20.405Z,101793.47
2022-10-16T10:25:00.104Z,101770.72
2022-10-16T10:27:38.408Z,101785.34
2022-10-16T10:33:08.458Z,101787.25
2022-10-16T10:35:43.798Z,101780.53
2022-10-16T10:38:27.027Z,101777.94
2022-10-16T10:41:06.179Z,101777.63
2022-10-16T10:43:51.512Z,101782.03
2022-10-16T10:46:31.055Z,101762.06
2022-10-16T10:49:28.272Z,101767.75
2022-10-16T10:52:04.565Z,101773.00
2022-10-16T10:54:43.892Z,101765.28
2022-10-16T10:57:25.098Z,101766.50
2022-10-16T11:00:19.235Z,101769.84
2022-10-16T11:02:54.563Z,101759.59
2022-10-16T11:05:44.751Z,101769.25
2022-10-16T11:08:18.688Z,101764.56
2022-10-16T11:10:49.636Z,101761.94
2022-10-16T11:13:32.576Z,101757.25
2022-10-16T11:16:05.480Z,101756.44
2022-10-16T11:18:44.996Z,101770.50
2022-10-16T11:21:16.915Z,101767.13
2022-10-16T11:23:53.845Z,101764.34
2022-10-16T11:26:25.631Z,101753.19
2022-10-16T11:28:57.422Z,101752.69
2022-10-16T11:31:33.265Z,101750.88
2022-10-16T11:34:06.729Z,101751.84
2022-10-16T11:36:41.223Z,101755.81
2022-10-16T11:39:21.992Z,101755.03
2022-10-16T11:41:53.483Z,101740.91
2022-10-16T11:44:44.542Z,101753.06
2022-10-16T11:47:53.766Z,101748.03
2022-10-16T11:50:24.840Z,101757.88
2022-10-16T11:52:59.124Z,101746.44
2022-10-16T11:55:33.963Z,101744.00
2022-10-16T11:58:08.543Z,101736.03
2022-10-16T12:00:46.378Z,101743.63
2022-10-16T12:03:23.011Z,101751.38
2022-10-16T12:06:05.083Z,101740.25
2022-10-16T12:08:36.742Z,101743.94
2022-10-16T12:11:22.902Z,101748.88
2022-10-16T12:13:51.416Z,101747.06
2022-10-16T12:16:25.914Z,101751.06
2022-10-16T12:19:13.197Z,101746.44
2022-10-16T12:21:42.291Z,101754.31
2022-10-16T12:24:24.079Z,101763.63
2022-10-16T12:26:54.928Z,101747.78
2022-10-16T12:29:30.962Z,101761.13
2022-10-16T12:32:01.194Z,101754.94
2022-10-16T12:34:32.353Z,101748.47
2022-10-16T12:37:17.595Z,101757.34
2022-10-16T12:39:46.279Z,101761.69
2022-10-16T12:42:26.386Z,101767.13
2022-10-16T12:44:55.766Z,101769.00
2022-10-16T12:47:39.013Z,101750.75
2022-10-16T12:50:27.035Z,101753.28
2022-10-16T12:52:55.476Z,101763.13
2022-10-16T12:55:25.323Z,101765.34
2022-10-16T12:58:16.363Z,101776.56
2022-10-16T13:00:48.374Z,101767.41
2022-10-16T13:03:57.271Z,101763.53
2022-10-16T13:06:38.913Z,101770.84
2022-10-16T13:09:30.648Z,101762.16
2022-10-16T13:12:12.515Z,101772.59
2022-10-16T13:14:57.682Z,101774.38
2022-10-16T13:17:32.916Z,101774.31
2022-10-16T13:20:15.047Z,101775.63
2022-10-16T13:23:01.358Z,101779.31
2022-10-16T13:25:41.569Z,101777.38
2022-10-16T13:28:12.718Z,101777.44
2022-10-16T13:30:44.515Z,101773.19
2022-10-16T13:33:19.600Z,101776.69
2022-10-16T13:35:55.014Z,101772.50
2022-10-16T13:38:25.025Z,101765.47
2022-10-16T13:40:56.410Z,101773.19
2022-10-16T13:43:30.512Z,101776.00
2022-10-16T13:46:00.796Z,101769.22
2022-10-16T13:48:29.323Z,101776.22
2022-10-16T13:51:19.358Z,101785.59
2022-10-16T13:53:48.504Z,101786.47
2022-10-16T13:56:19.879Z,101794.13
2022-10-16T13:58:48.634Z,101795.66
2022-10-16T14:01:20.617Z,101805.47
2022-10-16T14:03:50.260Z,101794.06
2022-10-16T14:06:24.424Z,101782.28
2022-10-16T14:08:56.156Z,101789.88
2022-10-16T14:11:25.855Z,101794.97
2022-10-16T14:13:55.552Z,101799.84
2022-10-16T14:16:26.051Z,101807.00
2022-10-16T14:19:00.044Z,101805.31
2022-10-16T14:21:29.904Z,101814.06
2022-10-16T14:23:58.477Z,101811.19
2022-10-16T14:26:30.130Z,101813.44
2022-10-16T14:29:13.505Z,101801.00
2022-10-16T14:31:42.115Z,101799.13
2022-10-16T14:34:28.526Z,101805.84
2022-10-16T14:36:58.993Z,101797.41
2022-10-16T14:39:28.790Z,101803.41
2022-10-16T14:42:00.073Z,101803.72
2022-10-16T14:44:33.777Z,101805.84
2022-10-16T14:47:11.783Z,101807.78
2022-10-16T14:49:39.900Z,101815.94
2022-10-16T14:52:13.861Z,101812.00
2022-10-16T14:54:41.715Z,101814.84
2022-10-16T14:57:19.509Z,101817.91
2022-10-16T14:59:48.357Z,101815.66
2022-10-16T15:02:25.635Z,101813.31
2022-10-16T15:04:53.858Z,101820.50
2022-10-16T15:07:24.196Z,101819.69
2022-10-16T15:09:52.754Z,101819.13
2022-10-16T15:12:20.839Z,101825.28
2022-10-16T15:14:48.862Z,101828.16
2022-10-16T15:17:18.736Z,101829.72
2022-10-16T15:19:49.536Z,101826.91
2022-10-16T15:22:17.616Z,101830.66
2022-10-16T15:24:47.216Z,101825.69
2022-10-16T15:27:15.345Z,101831.28
2022-10-16T15:29:43.373Z,101828.34
2022-10-16T15:32:12.808Z,101842.38
2022-10-16T15:34:40.887Z,101839.66
2022-10-16T15:37:08.940Z,101847.00
2022-10-16T15:39:40.546Z,101849.31
2022-10-16T15:42:11.082Z,101859.59
2022-10-16T15:44:39.189Z,101853.25
2022-10-16T15:47:07.144Z,101862.44
2022-10-16T15:49:35.142Z,101865.72
2022-10-16T15:52:03.215Z,101860.38
2022-10-16T15:54:31.307Z,101864.25
2022-10-16T15:56:59.372Z,101858.00
2022-10-16T15:59:29.161Z,101861.34
2022-10-16T16:01:57.253Z,101869.63
2022-10-16T16:04:42.814Z,101867.63
2022-10-16T16:07:12.437Z,101869.22
2022-10-16T16:09:40.426Z,101874.91
2022-10-16T16:12:08.553Z,101884.97
2022-10-16T16:14:38.275Z,101884.72
2022-10-16T16:17:06.367Z,101881.63
2022-10-16T16:19:35.173Z,101891.50
2022-10-16T16:22:03.377Z,101886.72
2022-10-16T16:24:31.448Z,101899.28
2022-10-16T16:26:59.552Z,101900.50
2022-10-16T16:29:28.031Z,101900.91
2022-10-16T16:32:00.452Z,101905.63
2022-10-16T16:34:29.596Z,101897.34
2022-10-16T16:36:58.249Z,101901.28
2022-10-16T16:39:27.046Z,101893.72
2022-10-16T16:41:57.487Z,101900.09
2022-10-16T16:44:25.636Z,101903.03
2022-10-16T16:46:54.151Z,101912.88
2022-10-16T16:49:24.044Z,101911.44
2022-10-16T16:51:52.491Z,101915.19
2022-10-16T16:54:20.945Z,101911.28
2022-10-16T16:56:49.513Z,101913.94
2022-10-16T16:59:19.123Z,101925.50
2022-10-16T17:01:48.504Z,101927.66
2022-10-16T17:04:18.377Z,101931.38
2022-10-16T17:06:48.348Z,101929.09
2022-10-16T17:09:16.607Z,101932.69
2022-10-16T17:11:46.122Z,101939.81
2022-10-16T17:14:14.573Z,101930.63
2022-10-16T17:16:45.053Z,101948.88
2022-10-16T17:19:15.937Z,101936.09
2022-10-16T17:21:44.979Z,101942.38
2022-10-16T17:24:14.793Z,101940.66
2022-10-16T17:26:48.924Z,101931.44
2022-10-16T17:29:18.214Z,101941.88
2022-10-16T17:31:49.934Z,101946.34
2022-10-16T17:34:18.813Z,101954.25
2022-10-16T17:36:47.925Z,101948.31
2022-10-16T17:39:19.364Z,101953.63
2022-10-16T17:41:48.599Z,101959.78
2022-10-16T17:44:21.192Z,101959.91
2022-10-16T17:46:51.392Z,101958.22
2022-10-16T17:49:19.900Z,101943.03
2022-10-16T17:51:51.299Z,101952.28
2022-10-16T17:54:21.742Z,101952.53
2022-10-16T17:56:50.168Z,101957.69
2022-10-16T17:59:18.425Z,101964.63
2022-10-16T18:01:46.711Z,101955.22
2022-10-16T18:04:17.534Z,101964.72
2022-10-16T18:06:48.077Z,101959.53
2022-10-16T18:09:19.704Z,101955.44
2022-10-16T18:11:52.733Z,101963.13
2022-10-16T18:14:21.344Z,101962.28
2022-10-16T18:19:19.074Z,101972.06
2022-10-16T18:21:49.447Z,101975.47
2022-10-16T18:24:17.801Z,101972.94
2022-10-16T18:26:46.377Z,101971.44
2022-10-16T18:29:16.268Z,101977.47
2022-10-16T18:31:44.290Z,101978.50
2022-10-16T18:34:12.744Z,101987.22
2022-10-16T18:36:42.576Z,101990.13
2022-10-16T18:39:12.401Z,101996.28
2022-10-16T18:41:42.240Z,101987.91
2022-10-16T18:44:11.507Z,101998.34
2022-10-16T18:46:41.495Z,102000.09
2022-10-16T18:49:09.621Z,102001.19
2022-10-16T18:51:39.272Z,102004.78
2022-10-16T18:54:11.587Z,102013.63
2022-10-16T18:56:40.697Z,102005.28
2022-10-16T18:59:10.272Z,102008.13
2022-10-16T19:01:40.179Z,102017.66
2022-10-16T19:04:11.348Z,102021.31
2022-10-16T19:06:42.944Z,102016.22
2022-10-16T19:09:12.296Z,102024.00
2022-10-16T19:11:41.900Z,102018.00
2022-10-16T19:14:10.297Z,102025.13
2022-10-16T19:16:39.066Z,102023.47
2022-10-16T19:19:11.561Z,102026.16
2022-10-16T19:21:41.607Z,102032.28
2022-10-16T19:24:13.435Z,102029.00
2022-10-16T19:26:42.376Z,102037.72
2022-10-16T19:29:11.723Z,102032.00
2022-10-16T19:31:40.352Z,102040.56
2022-10-16T19:34:12.120Z,102040.63
2022-10-16T19:36:41.671Z,102036.59
2022-10-16T19:39:13.729Z,102044.41
2022-10-16T19:41:42.389Z,102051.84
2022-10-16T19:44:13.474Z,102044.88
2022-10-16T19:46:41.954Z,102051.63
2022-10-16T19:49:13.510Z,102061.97
2022-10-16T19:51:42.353Z,102057.44
2022-10-16T19:54:14.527Z,102066.09
2022-10-16T19:56:44.228Z,102071.41
2022-10-16T19:59:16.432Z,102071.38
2022-10-16T20:01:44.554Z,102073.19
2022-10-16T20:04:14.583Z,102074.69
2022-10-16T20:06:42.790Z,102073.06
2022-10-16T20:09:10.864Z,102076.50
2022-10-16T20:11:39.435Z,102083.72
2022-10-16T20:14:08.015Z,102081.00
2022-10-16T20:16:36.506Z,102081.09
2022-10-16T20:19:05.585Z,102088.81
2022-10-16T20:21:36.306Z,102083.88
2022-10-16T20:24:06.729Z,102083.63
2022-10-16T20:26:35.659Z,102078.44
2022-10-16T20:29:05.699Z,102084.06
2022-10-16T20:31:35.662Z,102082.50
2022-10-16T20:34:07.151Z,102079.81
2022-10-16T20:36:38.159Z,102089.50
2022-10-16T20:39:07.757Z,102092.59
2022-10-16T20:41:36.042Z,102085.66
2022-10-16T20:44:04.962Z,102091.25
2022-10-16T20:46:33.621Z,102070.72
2022-10-16T20:49:10.732Z,102090.31
2022-10-16T20:51:41.481Z,102100.38
2022-10-16T20:54:09.649Z,102095.38
2022-10-16T20:56:38.680Z,102095.06
2022-10-16T20:59:08.029Z,102091.97
2022-10-16T21:01:37.128Z,102095.19
2022-10-16T21:04:07.487Z,102096.22
2022-10-16T21:06:37.919Z,102099.53
2022-10-16T21:09:10.421Z,102103.00
2022-10-16T21:11:39.459Z,102095.38
2022-10-16T21:14:09.888Z,102101.09
2022-10-16T21:16:38.391Z,102100.81
2022-10-16T21:19:06.981Z,102101.41
2022-10-16T21:21:38.061Z,102106.44
2022-10-16T21:24:12.167Z,102109.59
2022-10-16T21:26:43.301Z,102115.81
2022-10-16T21:29:11.530Z,102116.69
2022-10-16T21:31:39.703Z,102114.00
2022-10-16T21:34:07.823Z,102113.81
2022-10-16T21:36:37.949Z,102122.19
2022-10-16T21:39:09.220Z,102126.34
2022-10-16T21:41:38.100Z,102126.19
2022-10-16T21:44:07.084Z,102127.00
2022-10-16T21:46:37.141Z,102127.91
2022-10-16T21:49:08.688Z,102130.56
2022-10-16T21:51:39.187Z,102130.66
2022-10-16T21:54:12.860Z,102130.78
2022-10-16T21:56:41.368Z,102135.22
2022-10-16T21:59:09.695Z,102131.06
2022-10-16T22:01:37.834Z,102134.59
2022-10-16T22:04:06.045Z,102135.66
2022-10-16T22:06:34.685Z,102129.19
2022-10-16T22:09:02.837Z,102142.09
2022-10-16T22:11:37.113Z,102137.28
2022-10-16T22:14:06.540Z,102140.69
2022-10-16T22:16:36.197Z,102150.22
2022-10-16T22:19:07.396Z,102135.78
2022-10-16T22:21:37.305Z,102151.59
2022-10-16T22:24:06.430Z,102146.91
2022-10-16T22:26:37.641Z,102138.78
2022-10-16T22:29:06.790Z,102142.91
2022-10-16T22:31:35.619Z,102150.66
2022-10-16T22:34:05.607Z,102145.41
2022-10-16T22:36:34.329Z,102145.22
2022-10-16T22:39:02.788Z,102154.91
2022-10-16T22:41:31.103Z,102141.25
2022-10-16T22:44:00.552Z,102153.09
2022-10-16T22:46:30.843Z,102160.94
2022-10-16T22:48:59.837Z,102157.47
2022-10-16T22:51:28.502Z,102156.53
2022-10-16T22:53:59.268Z,102153.91
2022-10-16T22:56:28.326Z,102162.19
2022-10-16T22:58:56.714Z,102168.78
2022-10-16T23:01:29.139Z,102171.22
2022-10-16T23:03:57.603Z,102176.22
2022-10-16T23:06:26.080Z,102154.09
2022-10-16T23:08:55.616Z,102172.09
2022-10-16T23:11:24.802Z,102171.13
2022-10-16T23:13:53.085Z,102173.13
2022-10-16T23:16:23.386Z,102169.69
2022-10-16T23:18:52.953Z,102172.56
2022-10-16T23:21:22.858Z,102173.41
2022-10-16T23:23:52.007Z,102170.22
2022-10-16T23:26:22.225Z,102174.53
2022-10-16T23:28:50.458Z,102177.19
2022-10-16T23:31:19.612Z,102171.88
2022-10-16T23:33:47.765Z,102179.91
2022-10-16T23:36:18.567Z,102172.09
2022-10-16T23:38:47.444Z,102186.69
2022-10-16T23:41:16.241Z,102191.66
2022-10-16T23:43:44.329Z,102193.00
2022-10-16T23:46:14.269Z,102186.69
2022-10-16T23:48:42.675Z,102185.97
2022-10-16T23:51:11.454Z,102194.53
2022-10-16T23:53:41.435Z,102190.47
2022-10-16T23:56:10.437Z,102193.25
2022-10-16T23:58:39.110Z,102187.56
